sensor_id;sensor_type;location;lat;lon;timestamp;pressure;altitude;pressure_sealevel;temperature;humidity
77161;BME280;66135;0.000;0.000;2023-03-01T00:02:02;102928.50;;;17.87;49.67
77161;BME280;66135;0.000;0.000;2023-03-01T00:04:30;102933.06;;;17.87;49.65
77161;BME280;66135;0.000;0.000;2023-03-01T00:06:56;102927.63;;;17.87;49.79
77161;BME280;66135;0.000;0.000;2023-03-01T00:09:21;102929.75;;;17.83;49.85
77161;BME280;66135;0.000;0.000;2023-03-01T00:11:47;102939.13;;;17.79;49.89
77161;BME280;66135;0.000;0.000;2023-03-01T00:14:13;102935.66;;;17.77;49.74
77161;BME280;66135;0.000;0.000;2023-03-01T00:16:40;102941.19;;;17.76;50.21
77161;BME280;66135;0.000;0.000;2023-03-01T00:19:16;102929.34;;;17.77;49.74
77161;BME280;66135;0.000;0.000;2023-03-01T00:21:43;102930.63;;;17.73;49.48
77161;BME280;66135;0.000;0.000;2023-03-01T00:24:09;102929.63;;;17.74;49.33
77161;BME280;66135;0.000;0.000;2023-03-01T00:26:35;102935.16;;;17.72;49.69
77161;BME280;66135;0.000;0.000;2023-03-01T00:29:01;102925.66;;;17.67;49.70
77161;BME280;66135;0.000;0.000;2023-03-01T00:31:35;102916.78;;;17.65;49.64
77161;BME280;66135;0.000;0.000;2023-03-01T00:34:03;102917.78;;;17.64;49.42
77161;BME280;66135;0.000;0.000;2023-03-01T00:36:32;102927.00;;;17.61;49.50
77161;BME280;66135;0.000;0.000;2023-03-01T00:38:57;102927.00;;;17.61;49.40
77161;BME280;66135;0.000;0.000;2023-03-01T00:41:23;102932.81;;;17.57;49.73
77161;BME280;66135;0.000;0.000;2023-03-01T00:43:59;102936.47;;;17.56;49.31
77161;BME280;66135;0.000;0.000;2023-03-01T00:46:26;102926.63;;;17.55;49.51
77161;BME280;66135;0.000;0.000;2023-03-01T00:48:52;102918.63;;;17.53;49.49
77161;BME280;66135;0.000;0.000;2023-03-01T00:51:19;102928.84;;;17.50;49.46
77161;BME280;66135;0.000;0.000;2023-03-01T00:53:45;102924.41;;;17.49;49.42
77161;BME280;66135;0.000;0.000;2023-03-01T00:56:12;102925.38;;;17.48;49.32
77161;BME280;66135;0.000;0.000;2023-03-01T00:58:39;102915.44;;;17.48;49.03
77161;BME280;66135;0.000;0.000;2023-03-01T01:01:18;102907.28;;;17.48;49.18
77161;BME280;66135;0.000;0.000;2023-03-01T01:03:58;102912.06;;;17.45;49.60
77161;BME280;66135;0.000;0.000;2023-03-01T01:06:29;102913.03;;;17.44;49.30
77161;BME280;66135;0.000;0.000;2023-03-01T01:08:56;102906.84;;;17.42;49.22
77161;BME280;66135;0.000;0.000;2023-03-01T01:11:23;102907.72;;;17.42;49.34
77161;BME280;66135;0.000;0.000;2023-03-01T01:13:48;102905.41;;;17.38;49.07
77161;BME280;66135;0.000;0.000;2023-03-01T01:16:15;102900.19;;;17.35;49.45
77161;BME280;66135;0.000;0.000;2023-03-01T01:18:41;102901.19;;;17.34;49.28
77161;BME280;66135;0.000;0.000;2023-03-01T01:21:09;102893.31;;;17.31;49.54
77161;BME280;66135;0.000;0.000;2023-03-01T01:23:36;102893.44;;;17.29;49.55
77161;BME280;66135;0.000;0.000;2023-03-01T01:26:10;102889.84;;;17.29;49.38
77161;BME280;66135;0.000;0.000;2023-03-01T01:28:36;102887.28;;;17.27;49.28
77161;BME280;66135;0.000;0.000;2023-03-01T01:31:02;102876.56;;;17.26;49.19
77161;BME280;66135;0.000;0.000;2023-03-01T01:33:27;102873.09;;;17.24;49.41
77161;BME280;66135;0.000;0.000;2023-03-01T01:35:53;102864.09;;;17.23;49.51
77161;BME280;66135;0.000;0.000;2023-03-01T01:38:19;102860.66;;;17.21;49.17
77161;BME280;66135;0.000;0.000;2023-03-01T01:40:49;102853.66;;;17.19;49.43
77161;BME280;66135;0.000;0.000;2023-03-01T01:43:20;102868.16;;;17.18;49.47
77161;BME280;66135;0.000;0.000;2023-03-01T01:45:46;102846.59;;;17.16;49.45
77161;BME280;66135;0.000;0.000;2023-03-01T01:48:15;102855.59;;;17.17;49.55
77161;BME280;66135;0.000;0.000;2023-03-01T01:50:42;102856.69;;;17.14;49.64
77161;BME280;66135;0.000;0.000;2023-03-01T01:53:17;102849.56;;;17.13;49.52
77161;BME280;66135;0.000;0.000;2023-03-01T01:55:46;102843.41;;;17.11;49.58
77161;BME280;66135;0.000;0.000;2023-03-01T01:58:21;102856.81;;;17.13;49.25
77161;BME280;66135;0.000;0.000;2023-03-01T02:00:47;102847.81;;;17.12;49.39
77161;BME280;66135;0.000;0.000;2023-03-01T02:03:18;102848.19;;;17.08;49.45
77161;BME280;66135;0.000;0.000;2023-03-01T02:08:38;102843.53;;;17.10;49.53
77161;BME280;66135;0.000;0.000;2023-03-01T02:11:06;102832.81;;;17.08;49.39
77161;BME280;66135;0.000;0.000;2023-03-01T02:13:41;102830.00;;;17.10;49.19
77161;BME280;66135;0.000;0.000;2023-03-01T02:16:12;102836.38;;;17.09;49.32
77161;BME280;66135;0.000;0.000;2023-03-01T02:18:39;102827.53;;;17.07;49.27
77161;BME280;66135;0.000;0.000;2023-03-01T02:21:12;102817.91;;;17.03;49.19
77161;BME280;66135;0.000;0.000;2023-03-01T02:23:41;102818.78;;;17.03;49.22
77161;BME280;66135;0.000;0.000;2023-03-01T02:28:56;102827.00;;;17.02;49.38
77161;BME280;66135;0.000;0.000;2023-03-01T02:31:22;102811.25;;;16.96;49.31
77161;BME280;66135;0.000;0.000;2023-03-01T02:34:07;102826.63;;;16.95;49.40
77161;BME280;66135;0.000;0.000;2023-03-01T02:36:40;102819.38;;;16.96;49.21
77161;BME280;66135;0.000;0.000;2023-03-01T02:39:07;102817.63;;;16.95;49.25
77161;BME280;66135;0.000;0.000;2023-03-01T02:41:56;102828.81;;;16.90;49.29
77161;BME280;66135;0.000;0.000;2023-03-01T02:44:22;102825.03;;;16.93;49.24
77161;BME280;66135;0.000;0.000;2023-03-01T02:46:53;102829.69;;;16.91;49.38
77161;BME280;66135;0.000;0.000;2023-03-01T02:49:36;102837.81;;;16.91;49.46
77161;BME280;66135;0.000;0.000;2023-03-01T02:52:22;102831.91;;;16.85;49.33
77161;BME280;66135;0.000;0.000;2023-03-01T02:54:57;102825.38;;;16.88;49.22
77161;BME280;66135;0.000;0.000;2023-03-01T02:57:25;102831.16;;;16.83;49.31
77161;BME280;66135;0.000;0.000;2023-03-01T02:59:57;102825.97;;;16.80;49.41
77161;BME280;66135;0.000;0.000;2023-03-01T03:02:25;102820.44;;;16.82;49.20
77161;BME280;66135;0.000;0.000;2023-03-01T03:05:06;102815.78;;;16.84;49.13
77161;BME280;66135;0.000;0.000;2023-03-01T03:07:38;102823.38;;;16.79;49.36
77161;BME280;66135;0.000;0.000;2023-03-01T03:10:06;102821.41;;;16.81;49.18
77161;BME280;66135;0.000;0.000;2023-03-01T03:12:32;102820.66;;;16.79;49.29
77161;BME280;66135;0.000;0.000;2023-03-01T03:14:57;102818.06;;;16.77;49.28
77161;BME280;66135;0.000;0.000;2023-03-01T03:17:23;102816.25;;;16.78;49.03
77161;BME280;66135;0.000;0.000;2023-03-01T03:19:48;102816.25;;;16.78;49.00
77161;BME280;66135;0.000;0.000;2023-03-01T03:22:14;102815.63;;;16.74;49.19
77161;BME280;66135;0.000;0.000;2023-03-01T03:24:40;102816.69;;;16.72;49.34
77161;BME280;66135;0.000;0.000;2023-03-01T03:27:06;102821.16;;;16.73;49.32
77161;BME280;66135;0.000;0.000;2023-03-01T03:29:32;102811.28;;;16.72;49.26
77161;BME280;66135;0.000;0.000;2023-03-01T03:31:58;102817.81;;;16.69;49.26
77161;BME280;66135;0.000;0.000;2023-03-01T03:34:23;102813.28;;;16.70;49.13
77161;BME280;66135;0.000;0.000;2023-03-01T03:36:55;102810.66;;;16.68;49.37
77161;BME280;66135;0.000;0.000;2023-03-01T03:39:27;102821.50;;;16.68;49.20
77161;BME280;66135;0.000;0.000;2023-03-01T03:42:13;102818.78;;;16.68;49.29
77161;BME280;66135;0.000;0.000;2023-03-01T03:44:38;102822.59;;;16.66;49.24
77161;BME280;66135;0.000;0.000;2023-03-01T03:47:03;102813.63;;;16.65;49.25
77161;BME280;66135;0.000;0.000;2023-03-01T03:49:29;102810.16;;;16.63;49.37
77161;BME280;66135;0.000;0.000;2023-03-01T03:51:54;102811.03;;;16.64;49.17
77161;BME280;66135;0.000;0.000;2023-03-01T03:54:20;102821.09;;;16.62;49.20
77161;BME280;66135;0.000;0.000;2023-03-01T03:56:45;102810.28;;;16.62;49.34
77161;BME280;66135;0.000;0.000;2023-03-01T03:59:10;102806.81;;;16.60;49.11
77161;BME280;66135;0.000;0.000;2023-03-01T04:01:36;102809.66;;;16.58;49.22
77161;BME280;66135;0.000;0.000;2023-03-01T04:04:01;102807.81;;;16.59;49.31
77161;BME280;66135;0.000;0.000;2023-03-01T04:06:29;102800.91;;;16.55;49.37
77161;BME280;66135;0.000;0.000;2023-03-01T04:08:54;102803.50;;;16.56;49.21
77161;BME280;66135;0.000;0.000;2023-03-01T04:11:25;102796.50;;;16.54;49.32
77161;BME280;66135;0.000;0.000;2023-03-01T04:13:56;102791.19;;;16.52;49.28
77161;BME280;66135;0.000;0.000;2023-03-01T04:16:32;102790.31;;;16.52;49.33
77161;BME280;66135;0.000;0.000;2023-03-01T04:18:57;102793.91;;;16.52;49.31
77161;BME280;66135;0.000;0.000;2023-03-01T04:21:24;102799.31;;;16.52;49.47
77161;BME280;66135;0.000;0.000;2023-03-01T04:23:50;102786.00;;;16.49;49.08
77161;BME280;66135;0.000;0.000;2023-03-01T04:26:18;102784.28;;;16.48;49.33
77161;BME280;66135;0.000;0.000;2023-03-01T04:28:44;102794.25;;;16.48;49.35
77161;BME280;66135;0.000;0.000;2023-03-01T04:31:13;102782.63;;;16.46;49.26
77161;BME280;66135;0.000;0.000;2023-03-01T04:33:49;102789.91;;;16.45;49.24
77161;BME280;66135;0.000;0.000;2023-03-01T04:36:18;102780.91;;;16.45;49.07
77161;BME280;66135;0.000;0.000;2023-03-01T04:38:44;102790.13;;;16.42;49.16
77161;BME280;66135;0.000;0.000;2023-03-01T04:41:18;102778.34;;;16.43;49.39
77161;BME280;66135;0.000;0.000;2023-03-01T04:43:44;102764.94;;;16.42;49.42
77161;BME280;66135;0.000;0.000;2023-03-01T04:46:14;102759.66;;;16.40;49.11
77161;BME280;66135;0.000;0.000;2023-03-01T04:48:41;102769.72;;;16.38;49.50
77161;BME280;66135;0.000;0.000;2023-03-01T04:51:07;102749.16;;;16.36;49.42
77161;BME280;66135;0.000;0.000;2023-03-01T04:53:34;102750.91;;;16.37;49.61
77161;BME280;66135;0.000;0.000;2023-03-01T04:56:02;102750.03;;;16.36;49.25
77161;BME280;66135;0.000;0.000;2023-03-01T04:58:27;102752.84;;;16.35;49.19
77161;BME280;66135;0.000;0.000;2023-03-01T05:00:54;102756.66;;;16.32;49.20
77161;BME280;66135;0.000;0.000;2023-03-01T05:03:20;102757.63;;;16.31;49.40
77161;BME280;66135;0.000;0.000;2023-03-01T05:05:48;102755.81;;;16.32;49.53
77161;BME280;66135;0.000;0.000;2023-03-01T05:08:14;102769.41;;;16.30;49.47
77161;BME280;66135;0.000;0.000;2023-03-01T05:10:49;102776.81;;;16.28;49.32
77161;BME280;66135;0.000;0.000;2023-03-01T05:13:15;102771.28;;;16.30;49.38
77161;BME280;66135;0.000;0.000;2023-03-01T05:16:00;102768.69;;;16.28;49.47
77161;BME280;66135;0.000;0.000;2023-03-01T05:18:26;102766.94;;;16.27;49.47
77161;BME280;66135;0.000;0.000;2023-03-01T05:20:54;102758.84;;;16.27;49.58
77161;BME280;66135;0.000;0.000;2023-03-01T05:23:24;102754.53;;;16.25;49.69
77161;BME280;66135;0.000;0.000;2023-03-01T05:25:50;102746.44;;;16.25;49.61
77161;BME280;66135;0.000;0.000;2023-03-01T05:28:19;102752.91;;;16.22;49.41
77161;BME280;66135;0.000;0.000;2023-03-01T05:30:45;102745.81;;;16.21;49.59
77161;BME280;66135;0.000;0.000;2023-03-01T05:33:11;102750.34;;;16.21;49.25
77161;BME280;66135;0.000;0.000;2023-03-01T05:35:43;102735.19;;;16.18;49.46
77161;BME280;66135;0.000;0.000;2023-03-01T05:38:12;102734.44;;;16.16;49.29
77161;BME280;66135;0.000;0.000;2023-03-01T05:40:40;102726.34;;;16.16;49.59
77161;BME280;66135;0.000;0.000;2023-03-01T05:43:05;102722.66;;;16.17;49.58
77161;BME280;66135;0.000;0.000;2023-03-01T05:45:31;102724.63;;;16.15;49.73
77161;BME280;66135;0.000;0.000;2023-03-01T05:47:57;102725.50;;;16.16;49.15
77161;BME280;66135;0.000;0.000;2023-03-01T05:50:28;102724.00;;;16.12;49.44
77161;BME280;66135;0.000;0.000;2023-03-01T05:52:59;102725.06;;;16.09;49.15
77161;BME280;66135;0.000;0.000;2023-03-01T05:55:25;102717.09;;;16.08;49.51
77161;BME280;66135;0.000;0.000;2023-03-01T05:57:51;102722.59;;;16.06;49.31
77161;BME280;66135;0.000;0.000;2023-03-01T06:00:18;102729.75;;;16.07;49.45
77161;BME280;66135;0.000;0.000;2023-03-01T06:02:44;102727.91;;;16.08;49.49
77161;BME280;66135;0.000;0.000;2023-03-01T06:05:11;102727.06;;;16.07;48.95
77161;BME280;66135;0.000;0.000;2023-03-01T06:07:37;102713.63;;;16.06;49.04
77161;BME280;66135;0.000;0.000;2023-03-01T06:10:03;102719.78;;;16.08;49.25
77161;BME280;66135;0.000;0.000;2023-03-01T06:12:37;102721.41;;;16.10;48.91
77161;BME280;66135;0.000;0.000;2023-03-01T06:15:06;102725.81;;;16.11;49.59
77161;BME280;66135;0.000;0.000;2023-03-01T06:17:35;102722.91;;;16.14;49.05
77161;BME280;66135;0.000;0.000;2023-03-01T06:20:07;102724.16;;;16.21;49.08
77161;BME280;66135;0.000;0.000;2023-03-01T06:22:33;102724.06;;;16.23;48.92
77161;BME280;66135;0.000;0.000;2023-03-01T06:24:59;102729.34;;;16.24;48.95
77161;BME280;66135;0.000;0.000;2023-03-01T06:27:24;102725.75;;;16.24;48.84
77161;BME280;66135;0.000;0.000;2023-03-01T06:29:50;102736.34;;;16.27;49.09
77161;BME280;66135;0.000;0.000;2023-03-01T06:32:15;102737.19;;;16.27;49.14
77161;BME280;66135;0.000;0.000;2023-03-01T06:34:41;102737.19;;;16.27;49.19
77161;BME280;66135;0.000;0.000;2023-03-01T06:37:07;102738.19;;;16.26;49.49
77161;BME280;66135;0.000;0.000;2023-03-01T06:39:32;102731.03;;;16.25;49.18
77161;BME280;66135;0.000;0.000;2023-03-01T06:41:58;102737.44;;;16.24;49.40
77161;BME280;66135;0.000;0.000;2023-03-01T06:44:23;102730.28;;;16.23;49.55
77161;BME280;66135;0.000;0.000;2023-03-01T06:46:49;102735.63;;;16.25;49.77
77161;BME280;66135;0.000;0.000;2023-03-01T06:49:15;102733.88;;;16.24;50.25
77161;BME280;66135;0.000;0.000;2023-03-01T06:51:55;102729.34;;;16.24;50.24
77161;BME280;66135;0.000;0.000;2023-03-01T06:54:21;102733.00;;;16.23;50.42
77161;BME280;66135;0.000;0.000;2023-03-01T06:56:47;102726.00;;;16.21;50.31
77161;BME280;66135;0.000;0.000;2023-03-01T06:59:13;102726.00;;;16.21;50.20
77161;BME280;66135;0.000;0.000;2023-03-01T07:01:41;102715.94;;;16.23;49.60
77161;BME280;66135;0.000;0.000;2023-03-01T07:04:07;102718.53;;;16.24;49.95
77161;BME280;66135;0.000;0.000;2023-03-01T07:06:33;102721.09;;;16.26;49.58
77161;BME280;66135;0.000;0.000;2023-03-01T07:08:58;102715.56;;;16.27;49.41
77161;BME280;66135;0.000;0.000;2023-03-01T07:11:24;102697.63;;;16.26;49.49
77161;BME280;66135;0.000;0.000;2023-03-01T07:13:49;102710.41;;;16.24;48.82
77161;BME280;66135;0.000;0.000;2023-03-01T07:16:14;102727.59;;;16.23;49.09
77161;BME280;66135;0.000;0.000;2023-03-01T07:18:41;102735.50;;;16.26;49.41
77161;BME280;66135;0.000;0.000;2023-03-01T07:21:08;102741.41;;;16.31;49.64
77161;BME280;66135;0.000;0.000;2023-03-01T07:23:34;102747.31;;;16.36;49.89
77161;BME280;66135;0.000;0.000;2023-03-01T07:26:00;102750.53;;;16.41;49.86
77161;BME280;66135;0.000;0.000;2023-03-01T07:28:26;102753.13;;;16.43;50.08
77161;BME280;66135;0.000;0.000;2023-03-01T07:30:52;102747.59;;;16.44;50.47
77161;BME280;66135;0.000;0.000;2023-03-01T07:33:18;102750.16;;;16.46;50.27
77161;BME280;66135;0.000;0.000;2023-03-01T07:35:43;102747.59;;;16.44;50.37
77161;BME280;66135;0.000;0.000;2023-03-01T07:38:09;102748.59;;;16.43;50.55
77161;BME280;66135;0.000;0.000;2023-03-01T07:40:35;102745.00;;;16.43;50.63
77161;BME280;66135;0.000;0.000;2023-03-01T07:43:00;102748.47;;;16.45;50.92
77161;BME280;66135;0.000;0.000;2023-03-01T07:45:27;102747.59;;;16.44;51.03
77161;BME280;66135;0.000;0.000;2023-03-01T07:47:54;102748.47;;;16.45;50.70
77161;BME280;66135;0.000;0.000;2023-03-01T07:50:20;102752.16;;;16.44;50.97
77161;BME280;66135;0.000;0.000;2023-03-01T07:52:46;102748.72;;;16.42;51.07
77161;BME280;66135;0.000;0.000;2023-03-01T07:55:12;102746.13;;;16.40;50.85
77161;BME280;66135;0.000;0.000;2023-03-01T07:57:57;102744.38;;;16.39;50.84
77161;BME280;66135;0.000;0.000;2023-03-01T08:00:23;102745.38;;;16.38;50.52
77161;BME280;66135;0.000;0.000;2023-03-01T08:02:48;102740.91;;;16.37;50.26
77161;BME280;66135;0.000;0.000;2023-03-01T08:05:13;102748.28;;;16.35;50.03
77161;BME280;66135;0.000;0.000;2023-03-01T08:07:39;102754.69;;;16.34;49.85
77161;BME280;66135;0.000;0.000;2023-03-01T08:10:05;102747.44;;;16.35;49.82
77161;BME280;66135;0.000;0.000;2023-03-01T08:12:30;102740.16;;;16.35;49.83
77161;BME280;66135;0.000;0.000;2023-03-01T08:14:56;102739.22;;;16.36;49.69
77161;BME280;66135;0.000;0.000;2023-03-01T08:17:22;102739.09;;;16.38;50.23
77161;BME280;66135;0.000;0.000;2023-03-01T08:19:47;102730.09;;;16.37;50.39
77161;BME280;66135;0.000;0.000;2023-03-01T08:22:13;102735.75;;;16.34;50.13
77161;BME280;66135;0.000;0.000;2023-03-01T08:24:38;102735.75;;;16.34;50.30
77161;BME280;66135;0.000;0.000;2023-03-01T08:27:04;102737.72;;;16.32;50.20
77161;BME280;66135;0.000;0.000;2023-03-01T08:29:33;102739.47;;;16.33;50.06
77161;BME280;66135;0.000;0.000;2023-03-01T08:31:59;102741.28;;;16.33;50.19
77161;BME280;66135;0.000;0.000;2023-03-01T08:34:25;102733.28;;;16.31;50.30
77161;BME280;66135;0.000;0.000;2023-03-01T08:36:50;102734.03;;;16.33;50.88
77161;BME280;66135;0.000;0.000;2023-03-01T08:39:18;102728.50;;;16.35;51.15
77161;BME280;66135;0.000;0.000;2023-03-01T08:41:44;102731.09;;;16.36;50.76
77161;BME280;66135;0.000;0.000;2023-03-01T08:44:11;102725.69;;;16.36;51.05
77161;BME280;66135;0.000;0.000;2023-03-01T08:46:39;102712.16;;;16.36;51.17
77161;BME280;66135;0.000;0.000;2023-03-01T08:49:16;102711.16;;;16.37;51.87
77161;BME280;66135;0.000;0.000;2023-03-01T08:51:50;102716.00;;;16.45;52.57
77161;BME280;66135;0.000;0.000;2023-03-01T08:54:19;102717.66;;;16.47;52.86
77161;BME280;66135;0.000;0.000;2023-03-01T08:56:45;102710.50;;;16.46;52.41
77161;BME280;66135;0.000;0.000;2023-03-01T08:59:12;102718.50;;;16.48;53.00
77161;BME280;66135;0.000;0.000;2023-03-01T09:01:38;102712.25;;;16.47;53.39
77161;BME280;66135;0.000;0.000;2023-03-01T09:04:05;102712.28;;;16.46;52.35
77161;BME280;66135;0.000;0.000;2023-03-01T09:06:39;102716.00;;;16.45;52.43
77161;BME280;66135;0.000;0.000;2023-03-01T09:09:06;102707.88;;;16.45;52.56
77161;BME280;66135;0.000;0.000;2023-03-01T09:11:31;102698.06;;;16.44;52.91
77161;BME280;66135;0.000;0.000;2023-03-01T09:13:58;102696.00;;;16.47;53.51
77161;BME280;66135;0.000;0.000;2023-03-01T09:16:23;102701.47;;;16.46;53.32
77161;BME280;66135;0.000;0.000;2023-03-01T09:18:53;102691.56;;;16.46;53.30
77161;BME280;66135;0.000;0.000;2023-03-01T09:21:20;102693.38;;;16.46;53.42
77161;BME280;66135;0.000;0.000;2023-03-01T09:23:48;102683.53;;;16.45;53.23
77161;BME280;66135;0.000;0.000;2023-03-01T09:26:19;102678.91;;;16.47;53.98
77161;BME280;66135;0.000;0.000;2023-03-01T09:28:47;102687.91;;;16.47;53.60
77161;BME280;66135;0.000;0.000;2023-03-01T09:31:13;102689.81;;;16.45;53.52
77161;BME280;66135;0.000;0.000;2023-03-01T09:33:41;102689.06;;;16.43;53.16
77161;BME280;66135;0.000;0.000;2023-03-01T09:36:10;102684.00;;;16.39;53.00
77161;BME280;66135;0.000;0.000;2023-03-01T09:38:36;102683.03;;;16.40;52.60
77161;BME280;66135;0.000;0.000;2023-03-01T09:41:01;102681.28;;;16.39;52.73
77161;BME280;66135;0.000;0.000;2023-03-01T09:43:53;102671.47;;;16.38;52.40
77161;BME280;66135;0.000;0.000;2023-03-01T09:46:24;102670.59;;;16.37;52.28
77161;BME280;66135;0.000;0.000;2023-03-01T09:48:57;102666.31;;;16.35;52.36
77161;BME280;66135;0.000;0.000;2023-03-01T09:51:42;102666.31;;;16.35;52.22
77161;BME280;66135;0.000;0.000;2023-03-01T09:54:11;102657.44;;;16.33;52.06
77161;BME280;66135;0.000;0.000;2023-03-01T09:56:41;102659.16;;;16.34;52.21
77161;BME280;66135;0.000;0.000;2023-03-01T09:59:19;102650.22;;;16.33;52.27
77161;BME280;66135;0.000;0.000;2023-03-01T10:02:17;102650.22;;;16.33;52.09
77161;BME280;66135;0.000;0.000;2023-03-01T10:08:35;102640.22;;;16.34;52.16
77161;BME280;66135;0.000;0.000;2023-03-01T10:11:05;102630.28;;;16.34;52.07
77161;BME280;66135;0.000;0.000;2023-03-01T10:14:04;102629.41;;;16.34;52.00
77161;BME280;66135;0.000;0.000;2023-03-01T10:19:15;102629.28;;;16.35;51.84
77161;BME280;66135;0.000;0.000;2023-03-01T10:21:43;102626.59;;;16.35;51.82
77161;BME280;66135;0.000;0.000;2023-03-01T10:24:19;102611.09;;;16.37;51.64
77161;BME280;66135;0.000;0.000;2023-03-01T10:26:58;102609.38;;;16.36;51.06
77161;BME280;66135;0.000;0.000;2023-03-01T10:30:05;102594.03;;;16.37;50.82
77161;BME280;66135;0.000;0.000;2023-03-01T10:32:33;102592.28;;;16.36;49.85
77161;BME280;66135;0.000;0.000;2023-03-01T10:34:58;102597.69;;;16.36;49.58
77161;BME280;66135;0.000;0.000;2023-03-01T10:37:24;102592.28;;;16.36;48.92
77161;BME280;66135;0.000;0.000;2023-03-01T10:40:09;102591.34;;;16.37;49.53
77161;BME280;66135;0.000;0.000;2023-03-01T10:42:38;102597.56;;;16.37;48.64
77161;BME280;66135;0.000;0.000;2023-03-01T10:45:35;102601.28;;;16.36;48.35
77161;BME280;66135;0.000;0.000;2023-03-01T10:50:33;102604.84;;;16.37;47.92
77161;BME280;66135;0.000;0.000;2023-03-01T10:53:03;102605.69;;;16.37;47.98
77161;BME280;66135;0.000;0.000;2023-03-01T10:55:35;102578.66;;;16.37;47.22
77161;BME280;66135;0.000;0.000;2023-03-01T11:00:57;102592.03;;;16.39;49.69
77161;BME280;66135;0.000;0.000;2023-03-01T11:03:27;102596.63;;;16.38;50.45
77161;BME280;66135;0.000;0.000;2023-03-01T11:05:56;102589.13;;;16.42;48.63
77161;BME280;66135;0.000;0.000;2023-03-01T11:08:37;102591.56;;;16.45;50.03
77161;BME280;66135;0.000;0.000;2023-03-01T11:11:08;102594.28;;;16.45;49.50
77161;BME280;66135;0.000;0.000;2023-03-01T11:14:18;102601.34;;;16.47;49.77
77161;BME280;66135;0.000;0.000;2023-03-01T11:16:48;102591.47;;;16.46;50.04
77161;BME280;66135;0.000;0.000;2023-03-01T11:19:19;102593.94;;;16.49;50.01
77161;BME280;66135;0.000;0.000;2023-03-01T11:22:12;102589.25;;;16.51;50.90
77161;BME280;66135;0.000;0.000;2023-03-01T11:24:43;102580.94;;;16.54;51.26
77161;BME280;66135;0.000;0.000;2023-03-01T11:27:24;102588.03;;;16.55;51.49
77161;BME280;66135;0.000;0.000;2023-03-01T11:35:25;102577.22;;;16.55;51.96
77161;BME280;66135;0.000;0.000;2023-03-01T11:40:40;102588.03;;;16.55;52.59
77161;BME280;66135;0.000;0.000;2023-03-01T11:43:19;102575.38;;;16.56;52.69
77161;BME280;66135;0.000;0.000;2023-03-01T11:48:17;102558.78;;;16.60;53.08
77161;BME280;66135;0.000;0.000;2023-03-01T11:50:51;102566.03;;;16.60;53.15
77161;BME280;66135;0.000;0.000;2023-03-01T11:53:28;102565.94;;;16.61;53.20
77161;BME280;66135;0.000;0.000;2023-03-01T11:56:21;102563.22;;;16.61;53.44
77161;BME280;66135;0.000;0.000;2023-03-01T12:02:07;102553.50;;;16.59;53.67
77161;BME280;66135;0.000;0.000;2023-03-01T12:10:22;102552.50;;;16.60;53.58
77161;BME280;66135;0.000;0.000;2023-03-01T12:18:41;102538.25;;;16.58;53.94
77161;BME280;66135;0.000;0.000;2023-03-01T12:21:34;102536.66;;;16.55;53.76
77161;BME280;66135;0.000;0.000;2023-03-01T12:29:27;102537.03;;;16.51;51.69
77161;BME280;66135;0.000;0.000;2023-03-01T12:32:27;102517.34;;;16.49;50.50
77161;BME280;66135;0.000;0.000;2023-03-01T12:35:20;102525.66;;;16.46;49.98
77161;BME280;66135;0.000;0.000;2023-03-01T12:38:24;102515.84;;;16.45;49.65
77161;BME280;66135;0.000;0.000;2023-03-01T12:43:55;102511.50;;;16.42;49.71
77161;BME280;66135;0.000;0.000;2023-03-01T12:49:13;102507.22;;;16.40;49.25
77161;BME280;66135;0.000;0.000;2023-03-01T12:52:02;102500.09;;;16.39;49.64
77161;BME280;66135;0.000;0.000;2023-03-01T12:54:36;102492.97;;;16.38;49.45
77161;BME280;66135;0.000;0.000;2023-03-01T12:57:18;102486.69;;;16.37;49.41
77161;BME280;66135;0.000;0.000;2023-03-01T13:00:22;102480.44;;;16.37;49.54
77161;BME280;66135;0.000;0.000;2023-03-01T13:05:52;102471.47;;;16.36;50.35
77161;BME280;66135;0.000;0.000;2023-03-01T13:08:56;102476.88;;;16.36;49.64
77161;BME280;66135;0.000;0.000;2023-03-01T13:11:41;102473.28;;;16.36;50.01
77161;BME280;66135;0.000;0.000;2023-03-01T13:16:48;102460.75;;;16.35;50.19
77161;BME280;66135;0.000;0.000;2023-03-01T13:19:19;102466.19;;;16.35;50.12
77161;BME280;66135;0.000;0.000;2023-03-01T13:22:28;102454.50;;;16.34;50.42
77161;BME280;66135;0.000;0.000;2023-03-01T13:25:12;102451.91;;;16.33;50.39
77161;BME280;66135;0.000;0.000;2023-03-01T13:27:38;102445.63;;;16.32;49.95
77161;BME280;66135;0.000;0.000;2023-03-01T13:30:12;102444.66;;;16.33;49.90
77161;BME280;66135;0.000;0.000;2023-03-01T13:32:49;102445.63;;;16.32;50.51
77161;BME280;66135;0.000;0.000;2023-03-01T13:37:42;102431.16;;;16.33;49.32
77161;BME280;66135;0.000;0.000;2023-03-01T13:42:54;102417.75;;;16.32;49.31
77161;BME280;66135;0.000;0.000;2023-03-01T13:47:47;102418.47;;;16.34;49.77
77161;BME280;66135;0.000;0.000;2023-03-01T13:50:23;102415.63;;;16.35;49.40
77161;BME280;66135;0.000;0.000;2023-03-01T13:53:02;102405.81;;;16.34;49.08
77161;BME280;66135;0.000;0.000;2023-03-01T13:55:41;102403.84;;;16.36;48.86
77161;BME280;66135;0.000;0.000;2023-03-01T13:58:43;102397.56;;;16.36;48.38
77161;BME280;66135;0.000;0.000;2023-03-01T14:01:33;102400.88;;;16.39;49.03
77161;BME280;66135;0.000;0.000;2023-03-01T14:07:16;102397.47;;;16.48;49.79
77161;BME280;66135;0.000;0.000;2023-03-01T14:10:04;102384.66;;;16.50;50.10
77161;BME280;66135;0.000;0.000;2023-03-01T14:12:49;102386.38;;;16.51;50.10
77161;BME280;66135;0.000;0.000;2023-03-01T14:15:19;102383.66;;;16.51;50.56
77161;BME280;66135;0.000;0.000;2023-03-01T14:18:01;102380.00;;;16.52;50.55
77161;BME280;66135;0.000;0.000;2023-03-01T14:20:49;102376.28;;;16.53;50.92
77161;BME280;66135;0.000;0.000;2023-03-01T14:23:20;102378.88;;;16.55;51.02
77161;BME280;66135;0.000;0.000;2023-03-01T14:25:56;102373.44;;;16.55;51.24
77161;BME280;66135;0.000;0.000;2023-03-01T14:28:28;102369.91;;;16.54;51.63
77161;BME280;66135;0.000;0.000;2023-03-01T14:30:55;102369.78;;;16.56;51.44